09:52
Airports
Links
Donate
Help keep this website running!
PayPal
Bitcoin
METAR
VDSR 180930Z 02003KT 9999 SCT015 33/23 Q1004
Current Weather Conditions at VDSR
VFR 09:30:00 18-11-17
Altimeter:29.65 hg
Temp:33.0°c 91°f
Dew point:23.0°c 73°f
Wind:3 knots, 3.5 mph, 2 m/s, from 20°
Visibility:6.21 statute miles
1500(SCT) Scattered
Past METAR reports
VFR 09:00:00 18-11-17
Altimeter:29.65 hg
Temp:34.0°c 93°f
Dew point:23.0°c 73°f
Wind:1 knots, 1.2 mph, 1 m/s,
Variable direction
Visibility:6.21 statute miles
1500(SCT) Scattered
VDSR 180900Z VRB01KT 9999 SCT015 34/23 Q1004
VFR 08:30:00 18-11-17
Altimeter:29.65 hg
Temp:34.0°c 93°f
Dew point:23.0°c 73°f
Wind:1 knots, 1.2 mph, 1 m/s,
Variable direction
Visibility:6.21 statute miles
1500(SCT) Scattered
VDSR 180830Z VRB01KT 9999 SCT015 34/23 Q1004
VFR 08:00:00 18-11-17
Altimeter:29.65 hg
Temp:34.0°c 93°f
Dew point:24.0°c 75°f
Wind:2 knots, 2.3 mph, 1 m/s,
Variable direction
Visibility:6.21 statute miles
1500(SCT) Scattered
VDSR 180800Z VRB02KT 9999 SCT015 34/24 Q1004
VFR 07:30:00 18-11-17
Altimeter:29.65 hg
Temp:34.0°c 93°f
Dew point:23.0°c 73°f
Wind:2 knots, 2.3 mph, 1 m/s,
Variable direction
Visibility:6.21 statute miles
1500(SCT) Scattered
VDSR 180730Z VRB02KT 9999 SCT015 34/23 Q1004
VFR 07:00:00 18-11-17
Altimeter:29.68 hg
Temp:33.0°c 91°f
Dew point:24.0°c 75°f
Wind:3 knots, 3.5 mph, 2 m/s,
Variable direction
Visibility:6.21 statute miles
1500(SCT) Scattered
VDSR 180700Z VRB03KT 9999 SCT015 33/24 Q1005
VFR 06:30:00 18-11-17
Altimeter:29.68 hg
Temp:33.0°c 91°f
Dew point:24.0°c 75°f
Wind:3 knots, 3.5 mph, 2 m/s,
Variable direction
Visibility:6.21 statute miles
1500(SCT) Scattered
VDSR 180630Z VRB03KT 9999 SCT015 33/24 Q1005
TAF
TAF VDSR 180500Z 1806/1824 01007KT 9999 SCT017 SCT040
Forecast at VDSR
06:00 18-11-17 to 00:00 19-11-17
Wind:7 Knots from 10°
Visibility:6.21 statute miles
1700SCT Scattered
4000SCT Scattered